Time;durP1;ratioP1;P1;durP2;ratioP2;P2;SDS_P1;SDS_P2;PMS_P1;PMS_P2;Temp;Humidity;BMP_temperature;BMP_pressure;BME280_temperature;BME280_humidity;BME280_pressure;Samples;Min_cycle;Max_cycle;Signal;HPM_P1;HPM_P2
2022/05/14 00:00:50;;;;;;;6.18;5.10;;;18.30;65.20;;;;;;5114386;28;20031;-75
2022/05/14 00:03:17;;;;;;;8.23;5.38;;;18.20;65.40;;;;;;5114285;28;20099;-75
2022/05/14 00:05:43;;;;;;;7.82;5.10;;;18.20;65.50;;;;;;5114313;28;20028;-75
2022/05/14 00:08:10;;;;;;;7.10;4.47;;;18.10;65.40;;;;;;5114194;28;20031;-75
2022/05/14 00:13:03;;;;;;;6.97;5.35;;;18.10;65.40;;;;;;5114223;28;20058;-75
2022/05/14 00:13:24;;;;;;;6.00;4.75;;;18.10;65.60;;;;;;5113668;28;20030;-75
2022/05/14 00:15:50;;;;;;;6.65;5.50;;;18.00;65.50;;;;;;5113877;28;20051;-75
2022/05/14 00:18:16;;;;;;;11.63;5.47;;;18.00;65.80;;;;;;5095807;28;20050;-75
2022/05/14 00:20:42;;;;;;;7.70;5.68;;;17.90;66.50;;;;;;5114022;28;20043;-75
2022/05/14 00:23:08;;;;;;;10.23;6.07;;;17.90;66.80;;;;;;5095780;28;20035;-75
2022/05/14 00:25:35;;;;;;;10.73;6.22;;;17.90;67.30;;;;;;5113915;28;20469;-75
2022/05/14 00:28:02;;;;;;;9.20;6.93;;;17.90;67.50;;;;;;5113945;28;20016;-75
2022/05/14 00:30:31;;;;;;;9.63;6.45;;;17.90;67.70;;;;;;5113945;28;20038;-75
2022/05/14 00:32:57;;;;;;;8.02;7.05;;;17.80;68.60;;;;;;5113840;28;20396;-75
2022/05/14 00:35:24;;;;;;;12.15;7.15;;;17.80;69.20;;;;;;5113823;28;20030;-75
2022/05/14 00:37:50;;;;;;;8.68;6.88;;;17.80;69.30;;;;;;5113658;28;20023;-75
2022/05/14 00:40:29;;;;;;;9.90;5.68;;;17.80;69.40;;;;;;5113666;28;20035;-75
2022/05/14 00:42:55;;;;;;;8.45;6.15;;;17.80;69.00;;;;;;5113737;28;20020;-75
2022/05/14 00:45:22;;;;;;;13.90;7.22;;;17.80;68.90;;;;;;5113735;28;20052;-76
2022/05/14 00:47:52;;;;;;;8.50;6.07;;;17.80;69.40;;;;;;5095398;28;20031;-75
2022/05/14 00:50:43;;;;;;;11.80;7.47;;;17.70;69.30;;;;;;5113691;28;20106;-75
2022/05/14 00:53:31;;;;;;;13.35;5.68;;;17.80;69.40;;;;;;5112957;28;20047;-75
2022/05/14 00:56:01;;;;;;;5.63;5.05;;;17.70;69.10;;;;;;5095438;28;20024;-75
2022/05/14 00:58:49;;;;;;;7.20;5.25;;;17.70;68.90;;;;;;5113385;28;20092;-75
2022/05/14 01:01:15;;;;;;;6.70;5.18;;;17.70;68.50;;;;;;5113401;28;20485;-76
2022/05/14 01:03:42;;;;;;;9.93;5.18;;;17.70;68.10;;;;;;5113313;28;20137;-75
2022/05/14 01:06:12;;;;;;;8.88;6.40;;;17.70;67.90;;;;;;5113273;28;20012;-75
2022/05/14 01:08:39;;;;;;;6.47;5.35;;;17.70;68.10;;;;;;5113409;28;20153;-76
2022/05/14 01:11:05;;;;;;;11.27;5.75;;;17.60;67.90;;;;;;5113233;28;20034;-75
2022/05/14 01:13:31;;;;;;;7.00;6.28;;;17.60;67.80;;;;;;5113323;28;20494;-75
2022/05/14 01:16:00;;;;;;;6.82;5.97;;;17.50;67.80;;;;;;5094994;28;20038;-75
2022/05/14 01:18:29;;;;;;;7.50;5.53;;;17.50;67.70;;;;;;5113220;28;20027;-75
2022/05/14 01:21:02;;;;;;;5.93;4.93;;;17.50;67.60;;;;;;5113097;28;20093;-75
2022/05/14 01:26:36;;;;;;;7.68;4.80;;;17.40;67.40;;;;;;5114976;28;20038;-75
2022/05/14 01:29:03;;;;;;;6.25;4.47;;;17.40;67.10;;;;;;5098932;28;20028;-75
2022/05/14 01:31:30;;;;;;;6.03;4.60;;;17.30;67.00;;;;;;5098968;28;20027;-75
2022/05/14 01:34:05;;;;;;;5.45;4.93;;;17.30;67.10;;;;;;5117199;28;20142;-75
2022/05/14 01:36:32;;;;;;;6.28;5.20;;;17.20;67.20;;;;;;5117026;28;20020;-75
2022/05/14 01:38:58;;;;;;;5.65;4.72;;;17.20;67.20;;;;;;5117054;28;20358;-76
2022/05/14 01:41:24;;;;;;;8.75;5.10;;;17.20;67.20;;;;;;5098709;28;20042;-75
2022/05/14 01:43:51;;;;;;;9.10;5.82;;;17.10;67.30;;;;;;5116979;28;20423;-75
2022/05/14 01:46:17;;;;;;;8.02;5.65;;;17.10;67.40;;;;;;5098639;28;20430;-76
2022/05/14 01:48:43;;;;;;;8.80;5.57;;;17.00;67.30;;;;;;5116924;28;20534;-76
2022/05/14 01:51:09;;;;;;;6.28;5.00;;;17.00;67.40;;;;;;5098619;28;20556;-75
2022/05/14 01:53:35;;;;;;;7.28;4.88;;;17.00;67.40;;;;;;5116835;28;20103;-75
2022/05/14 01:56:01;;;;;;;8.45;6.45;;;16.90;67.40;;;;;;5098414;28;20030;-75
2022/05/14 01:58:39;;;;;;;6.68;5.13;;;16.90;67.30;;;;;;5116544;28;20035;-75
2022/05/14 02:01:17;;;;;;;6.43;4.68;;;16.90;67.30;;;;;;5120344;28;20028;-76
2022/05/14 02:03:48;;;;;;;6.10;5.25;;;16.80;67.50;;;;;;5128701;28;20023;-75
2022/05/14 02:06:15;;;;;;;9.50;6.25;;;16.80;67.40;;;;;;5128807;28;20020;-75
2022/05/14 02:08:41;;;;;;;10.63;5.82;;;16.80;67.40;;;;;;5128577;28;20423;-75
2022/05/14 02:11:08;;;;;;;7.78;6.38;;;16.70;67.30;;;;;;5129217;28;20028;-76
2022/05/14 02:13:35;;;;;;;11.02;5.60;;;16.70;67.50;;;;;;5130178;28;20062;-76
2022/05/14 02:16:01;;;;;;;7.45;5.68;;;16.60;67.50;;;;;;5100923;28;20035;-76
2022/05/14 02:18:27;;;;;;;7.80;5.68;;;16.60;67.50;;;;;;5116475;28;20020;-76
2022/05/14 02:20:53;;;;;;;8.38;4.93;;;16.60;67.60;;;;;;5116335;28;20542;-75
2022/05/14 02:23:19;;;;;;;8.07;6.05;;;16.60;67.60;;;;;;5098004;28;20023;-75
2022/05/14 02:25:47;;;;;;;6.75;5.07;;;16.50;67.60;;;;;;5116195;28;20110;-75
2022/05/14 02:28:13;;;;;;;7.57;4.93;;;16.50;67.60;;;;;;5116183;28;20023;-75
2022/05/14 02:30:39;;;;;;;5.40;4.57;;;16.50;67.60;;;;;;5097943;28;20027;-76
2022/05/14 02:33:05;;;;;;;5.60;4.55;;;16.40;67.60;;;;;;5116056;28;20473;-76
2022/05/14 02:35:31;;;;;;;7.13;5.05;;;16.40;67.60;;;;;;5097749;28;20111;-75
2022/05/14 02:37:57;;;;;;;5.60;4.85;;;16.40;67.90;;;;;;5115479;28;20388;-75
2022/05/14 02:40:23;;;;;;;7.90;5.43;;;16.30;67.80;;;;;;5115987;28;20027;-75
2022/05/14 02:42:49;;;;;;;7.47;5.78;;;16.30;67.80;;;;;;5116196;28;20103;-75
2022/05/14 02:45:15;;;;;;;7.25;5.13;;;16.30;67.70;;;;;;5115905;28;20480;-75
2022/05/14 02:47:41;;;;;;;7.65;5.65;;;16.30;67.80;;;;;;5097634;28;20024;-75
2022/05/14 02:50:08;;;;;;;9.55;5.38;;;16.20;67.70;;;;;;5115900;28;20028;-75
2022/05/14 02:52:34;;;;;;;6.60;5.32;;;16.20;67.80;;;;;;5115779;28;20023;-75
2022/05/14 02:55:00;;;;;;;8.00;4.43;;;16.20;67.80;;;;;;5115614;28;20032;-75
2022/05/14 02:57:26;;;;;;;6.03;4.82;;;16.20;67.70;;;;;;5115581;28;20469;-75
2022/05/14 02:59:52;;;;;;;9.82;6.25;;;16.10;67.70;;;;;;5115246;28;20044;-76
2022/05/14 03:02:18;;;;;;;9.85;5.53;;;16.10;68.70;;;;;;5097253;28;20497;-76
2022/05/14 03:04:44;;;;;;;9.43;5.93;;;16.00;69.40;;;;;;5115391;28;20024;-76
2022/05/14 03:07:12;;;;;;;12.02;7.13;;;16.00;69.60;;;;;;5097079;28;20027;-76
2022/05/14 03:09:39;;;;;;;17.63;7.72;;;16.00;70.10;;;;;;5115519;28;20023;-75
2022/05/14 03:12:07;;;;;;;58.22;8.40;;;16.00;70.60;;;;;;5115288;28;20098;-76
2022/05/14 03:14:34;;;;;;;69.43;10.35;;;16.00;71.20;;;;;;5115751;28;20035;-76
2022/05/14 03:17:00;;;;;;;25.73;8.82;;;16.10;71.70;;;;;;5115286;28;20027;-75
2022/05/14 03:19:26;;;;;;;38.72;8.85;;;16.10;72.00;;;;;;5115101;28;20107;-75
2022/05/14 03:21:52;;;;;;;18.52;9.13;;;16.10;71.90;;;;;;5115171;28;20047;-75
2022/05/14 03:24:19;;;;;;;10.48;8.38;;;16.10;72.00;;;;;;5114856;28;20488;-75
2022/05/14 03:26:45;;;;;;;12.63;8.48;;;16.20;72.00;;;;;;5115002;28;20026;-75
2022/05/14 03:29:11;;;;;;;18.92;7.80;;;16.20;71.90;;;;;;5114923;28;20044;-75
2022/05/14 03:31:40;;;;;;;14.55;8.65;;;16.30;71.90;;;;;;5114946;28;20076;-75
2022/05/14 03:34:07;;;;;;;9.70;8.65;;;16.30;71.70;;;;;;5096378;28;20026;-75
2022/05/14 03:36:33;;;;;;;15.40;7.13;;;16.30;71.50;;;;;;5096569;28;20027;-75
2022/05/14 03:38:59;;;;;;;8.80;6.90;;;16.30;71.30;;;;;;5096449;28;20038;-76
2022/05/14 03:41:25;;;;;;;7.32;6.55;;;16.30;71.00;;;;;;5096392;28;20388;-75
2022/05/14 03:43:51;;;;;;;6.90;6.20;;;16.40;70.80;;;;;;5096356;28;20111;-76
2022/05/14 03:46:17;;;;;;;8.18;5.97;;;16.40;70.60;;;;;;5114638;28;20051;-76
2022/05/14 03:48:44;;;;;;;7.25;5.68;;;16.40;70.40;;;;;;5113731;28;20044;-75
2022/05/14 03:51:10;;;;;;;8.82;6.65;;;16.40;70.10;;;;;;5114415;28;20027;-75
2022/05/14 03:53:37;;;;;;;9.20;7.10;;;16.40;70.00;;;;;;5096253;28;20092;-75
2022/05/14 03:56:04;;;;;;;9.45;6.80;;;16.30;70.00;;;;;;5096175;28;20026;-75
2022/05/14 03:58:30;;;;;;;11.50;7.15;;;16.30;70.00;;;;;;5114171;28;20497;-75
2022/05/14 04:00:56;;;;;;;8.57;7.30;;;16.30;70.10;;;;;;5114169;28;20107;-75
2022/05/14 04:03:22;;;;;;;10.45;6.70;;;16.30;70.30;;;;;;5114338;28;20020;-76
2022/05/14 04:05:48;;;;;;;9.20;6.32;;;16.40;70.40;;;;;;5114366;28;20019;-76
2022/05/14 04:08:13;;;;;;;7.32;6.00;;;16.40;70.60;;;;;;5114392;28;20038;-75
2022/05/14 04:10:39;;;;;;;7.35;5.88;;;16.40;70.70;;;;;;5114275;28;20032;-75
2022/05/14 04:13:05;;;;;;;9.88;7.18;;;16.50;70.80;;;;;;5114198;28;20380;-75
2022/05/14 04:15:31;;;;;;;7.85;6.95;;;16.50;70.80;;;;;;5095896;28;20062;-75
2022/05/14 04:17:57;;;;;;;15.88;8.07;;;16.60;71.30;;;;;;5114095;28;20027;-75
2022/05/14 04:20:23;;;;;;;18.48;7.72;;;16.60;70.20;;;;;;5114026;28;20028;-75
2022/05/14 04:22:50;;;;;;;12.00;6.88;;;16.60;70.00;;;;;;5113978;28;20496;-75
2022/05/14 04:25:17;;;;;;;9.00;6.70;;;16.60;69.90;;;;;;5095692;28;20030;-76
2022/05/14 04:27:44;;;;;;;8.00;6.32;;;16.70;69.90;;;;;;5113951;28;20016;-75
2022/05/14 04:30:12;;;;;;;7.85;6.95;;;16.60;69.70;;;;;;5113953;28;20028;-75
2022/05/14 04:32:38;;;;;;;11.35;6.38;;;16.70;69.70;;;;;;5113829;28;20050;-75
2022/05/14 04:35:05;;;;;;;7.32;5.95;;;16.70;69.70;;;;;;5095632;28;20027;-76
2022/05/14 04:37:31;;;;;;;10.02;5.70;;;16.70;69.60;;;;;;5113833;28;20058;-75
2022/05/14 04:39:57;;;;;;;11.38;6.25;;;16.70;69.50;;;;;;5113738;28;20051;-76
2022/05/14 04:42:23;;;;;;;8.52;6.43;;;16.70;69.50;;;;;;5113816;28;20413;-75
2022/05/14 04:44:48;;;;;;;7.55;6.03;;;16.80;69.60;;;;;;5095437;28;20469;-75
2022/05/14 04:47:17;;;;;;;7.75;6.65;;;16.80;69.50;;;;;;5113657;28;20024;-75
2022/05/14 04:49:46;;;;;;;8.18;6.60;;;16.80;69.50;;;;;;5113651;28;20020;-75
2022/05/14 04:52:12;;;;;;;9.13;6.97;;;16.80;69.40;;;;;;5095381;28;20034;-75
2022/05/14 04:54:40;;;;;;;10.50;8.43;;;16.90;69.40;;;;;;5113629;28;20098;-76
2022/05/14 04:57:08;;;;;;;8.77;6.93;;;16.90;69.30;;;;;;5113620;28;20035;-76
2022/05/14 04:59:34;;;;;;;7.10;6.30;;;16.90;69.20;;;;;;5113154;28;20048;-76
2022/05/14 05:04:45;;;;;;;8.68;5.85;;;17.00;69.00;;;;;;5113566;28;20594;-75
2022/05/14 05:07:11;;;;;;;11.35;6.22;;;17.00;68.90;;;;;;5113469;28;20071;-76
2022/05/14 05:09:38;;;;;;;8.00;5.50;;;17.10;68.90;;;;;;5113479;28;20054;-75
2022/05/14 05:12:05;;;;;;;9.55;6.38;;;17.10;68.90;;;;;;5113417;28;20064;-75
2022/05/14 05:14:30;;;;;;;6.85;5.55;;;17.20;68.50;;;;;;5113428;28;20024;-75
2022/05/14 05:16:57;;;;;;;6.53;5.72;;;17.20;68.30;;;;;;5113467;28;20102;-75
2022/05/14 05:19:24;;;;;;;6.20;4.38;;;17.20;67.90;;;;;;5113331;28;20362;-75
2022/05/14 05:21:50;;;;;;;8.68;4.30;;;17.30;67.10;;;;;;5113392;28;20388;-75
2022/05/14 05:24:16;;;;;;;5.97;3.53;;;17.30;65.90;;;;;;5094929;28;20019;-75
2022/05/14 05:26:42;;;;;;;5.95;4.38;;;17.40;66.10;;;;;;5113263;28;20100;-76
2022/05/14 05:29:09;;;;;;;4.70;3.92;;;17.40;65.60;;;;;;5113263;28;20024;-75
2022/05/14 05:31:34;;;;;;;5.10;3.08;;;17.50;65.20;;;;;;5113102;28;20018;-75
2022/05/14 05:34:02;;;;;;;6.57;3.00;;;17.60;64.20;;;;;;5113208;28;20028;-76
2022/05/14 05:36:28;;;;;;;6.35;3.20;;;17.60;64.00;;;;;;5094957;28;20028;-75
2022/05/14 05:38:54;;;;;;;6.80;2.92;;;17.70;63.70;;;;;;5113209;28;20020;-76
2022/05/14 05:41:20;;;;;;;6.97;2.47;;;17.80;63.30;;;;;;5094888;28;20034;-75
2022/05/14 05:43:48;;;;;;;3.47;2.33;;;17.80;63.00;;;;;;5094920;28;20085;-75
2022/05/14 05:46:14;;;;;;;8.30;2.50;;;17.90;62.30;;;;;;5113132;28;20094;-76
2022/05/14 05:48:41;;;;;;;7.30;2.25;;;18.00;62.10;;;;;;5113071;28;20453;-76
2022/05/14 05:51:07;;;;;;;5.47;2.67;;;18.00;62.10;;;;;;5113066;28;20026;-75
2022/05/14 05:59:04;;;;;;;4.75;2.47;;;18.20;60.80;;;;;;5113007;28;20097;-75
2022/05/14 06:01:31;;;;;;;6.28;3.30;;;18.30;60.30;;;;;;5112809;28;20055;-75
2022/05/14 06:03:56;;;;;;;5.65;2.40;;;18.40;60.00;;;;;;5112985;28;20443;-75
2022/05/14 06:06:22;;;;;;;10.15;2.72;;;18.40;59.70;;;;;;5112848;28;20044;-75
2022/05/14 06:08:48;;;;;;;3.92;2.30;;;18.50;59.60;;;;;;5112853;28;20049;-76
2022/05/14 06:11:14;;;;;;;5.93;2.53;;;18.50;59.40;;;;;;5112793;28;20054;-75
2022/05/14 06:13:42;;;;;;;3.45;2.35;;;18.60;59.60;;;;;;5115966;28;20023;-75
2022/05/14 06:16:09;;;;;;;7.30;3.22;;;18.60;59.30;;;;;;5116499;28;20411;-75
2022/05/14 06:18:35;;;;;;;8.13;4.03;;;18.70;59.40;;;;;;5116382;28;20023;-76
2022/05/14 06:21:01;;;;;;;6.70;4.35;;;18.70;59.30;;;;;;5116342;28;20140;-75
2022/05/14 06:23:27;;;;;;;6.70;4.07;;;18.80;59.40;;;;;;5116259;28;20448;-75
2022/05/14 06:25:52;;;;;;;10.70;6.15;;;18.80;59.30;;;;;;5116341;28;20032;-75
2022/05/14 06:28:18;;;;;;;11.13;6.50;;;18.80;59.50;;;;;;5116240;28;20365;-75
2022/05/14 06:30:44;;;;;;;10.63;8.30;;;18.90;59.80;;;;;;5116061;28;20027;-75
2022/05/14 06:33:11;;;;;;;12.95;8.05;;;19.00;60.30;;;;;;5116137;28;20069;-75
2022/05/14 06:35:38;;;;;;;11.05;8.05;;;19.10;60.50;;;;;;5116146;28;20129;-75
2022/05/14 06:38:06;;;;;;;9.82;7.80;;;19.20;60.70;;;;;;5115983;28;20023;-75
2022/05/14 06:40:33;;;;;;;15.50;10.15;;;19.30;60.80;;;;;;5115955;28;20019;-75
2022/05/14 06:42:59;;;;;;;12.45;10.35;;;19.40;60.80;;;;;;5115964;28;20107;-75
2022/05/14 06:45:25;;;;;;;14.82;10.98;;;19.50;60.90;;;;;;5115878;28;20047;-75
2022/05/14 06:47:52;;;;;;;11.43;9.93;;;19.50;60.60;;;;;;5097593;28;20495;-76
2022/05/14 06:50:18;;;;;;;13.48;10.00;;;19.70;60.70;;;;;;5097562;28;20396;-75
2022/05/14 06:52:46;;;;;;;19.08;10.30;;;19.80;60.70;;;;;;5115838;28;20024;-75
2022/05/14 06:55:16;;;;;;;14.30;10.60;;;19.90;60.30;;;;;;5115754;28;20033;-75
2022/05/14 06:57:42;;;;;;;13.55;9.90;;;20.00;60.00;;;;;;5115658;28;20047;-75
2022/05/14 07:00:09;;;;;;;18.65;11.18;;;20.20;60.20;;;;;;5115384;28;20072;-75
2022/05/14 07:02:36;;;;;;;14.48;11.50;;;20.30;59.70;;;;;;5115440;28;20047;-75
2022/05/14 07:07:47;;;;;;;12.32;9.57;;;20.60;59.20;;;;;;5115530;28;20049;-75
2022/05/14 07:10:13;;;;;;;13.15;10.43;;;20.80;58.80;;;;;;5115443;28;20098;-75
2022/05/14 07:12:39;;;;;;;18.38;10.38;;;20.90;58.40;;;;;;5115379;28;20032;-76
2022/05/14 07:15:07;;;;;;;14.43;8.95;;;21.00;57.40;;;;;;5115407;28;20085;-76
2022/05/14 07:17:33;;;;;;;13.82;9.50;;;21.10;56.40;;;;;;5115206;28;20019;-75
2022/05/14 07:19:59;;;;;;;15.60;9.25;;;21.20;56.20;;;;;;5096916;28;20030;-75
2022/05/14 07:22:27;;;;;;;13.93;8.35;;;21.30;55.00;;;;;;5115227;28;20427;-75
2022/05/14 07:24:53;;;;;;;13.85;9.20;;;21.40;54.30;;;;;;5096560;28;20488;-75
2022/05/14 07:27:19;;;;;;;11.70;7.68;;;21.50;54.00;;;;;;5115070;28;20028;-75
2022/05/14 07:29:45;;;;;;;14.98;9.55;;;21.50;54.50;;;;;;5114920;28;20015;-76
2022/05/14 07:32:14;;;;;;;14.02;8.63;;;21.70;54.20;;;;;;5096763;28;20027;-75
2022/05/14 07:34:40;;;;;;;14.38;9.20;;;21.80;54.30;;;;;;5096577;28;20452;-75
2022/05/14 07:37:09;;;;;;;13.63;8.45;;;21.90;53.10;;;;;;5114975;28;20099;-75
2022/05/14 07:39:50;;;;;;;11.18;7.53;;;22.00;53.50;;;;;;5114861;28;20016;-75
2022/05/14 07:42:39;;;;;;;11.90;7.55;;;22.10;52.70;;;;;;5114784;28;20022;-75
2022/05/14 07:45:10;;;;;;;9.45;6.57;;;22.20;51.10;;;;;;5114987;28;20016;-75
2022/05/14 07:47:37;;;;;;;12.15;6.25;;;22.30;51.10;;;;;;5114637;28;20016;-76
2022/05/14 07:50:04;;;;;;;11.40;7.45;;;22.40;51.50;;;;;;5114484;28;20023;-75
2022/05/14 07:52:30;;;;;;;11.77;7.00;;;22.50;51.30;;;;;;5114524;28;20094;-76
2022/05/14 07:54:56;;;;;;;11.70;7.75;;;22.50;50.60;;;;;;5114485;28;20487;-75
2022/05/14 07:57:22;;;;;;;9.77;7.07;;;22.60;50.40;;;;;;5114514;28;20103;-75
2022/05/14 07:59:47;;;;;;;8.48;6.50;;;22.70;50.90;;;;;;5114146;28;20051;-74
2022/05/14 08:02:42;;;;;;;11.23;7.15;;;22.80;51.10;;;;;;5096138;28;20020;-77
2022/05/14 08:05:09;;;;;;;10.27;7.35;;;22.80;50.70;;;;;;5094083;28;20106;-75
2022/05/14 08:07:35;;;;;;;11.82;6.40;;;22.90;49.90;;;;;;5114325;28;20089;-76
2022/05/14 08:10:02;;;;;;;10.65;6.75;;;22.90;49.90;;;;;;5095946;28;20426;-76
2022/05/14 08:12:41;;;;;;;12.15;7.53;;;22.90;49.50;;;;;;5095893;28;20051;-75
2022/05/14 08:15:08;;;;;;;8.00;5.65;;;23.00;49.00;;;;;;5114234;28;20024;-75
2022/05/14 08:17:34;;;;;;;10.38;5.75;;;23.00;49.50;;;;;;5114124;28;20019;-76
2022/05/14 08:20:00;;;;;;;9.57;6.30;;;23.00;48.80;;;;;;5113956;28;20028;-75
2022/05/14 08:25:10;;;;;;;8.77;5.28;;;23.10;48.50;;;;;;5113986;28;20111;-76
2022/05/14 08:27:44;;;;;;;15.88;6.15;;;23.10;47.70;;;;;;5113781;28;20073;-76
2022/05/14 08:30:33;;;;;;;7.88;5.55;;;23.10;47.80;;;;;;5113964;28;20030;-74
2022/05/14 08:32:59;;;;;;;9.95;5.30;;;23.20;48.70;;;;;;5113603;28;20040;-76
2022/05/14 08:35:25;;;;;;;9.02;5.65;;;23.20;48.60;;;;;;5113314;28;20023;-74
2022/05/14 08:37:53;;;;;;;9.32;5.25;;;23.30;48.20;;;;;;5113709;28;20027;-75
2022/05/14 08:40:28;;;;;;;9.75;5.40;;;23.30;47.70;;;;;;5113620;28;20016;-75
2022/05/14 08:42:58;;;;;;;7.88;5.05;;;23.30;48.50;;;;;;5095477;28;20028;-75
2022/05/14 08:45:26;;;;;;;11.02;4.93;;;23.30;48.70;;;;;;5113661;28;20054;-75
2022/05/14 08:47:57;;;;;;;6.97;4.85;;;23.40;48.80;;;;;;5113595;28;20024;-76
2022/05/14 08:50:37;;;;;;;10.90;5.35;;;23.50;48.60;;;;;;5113543;28;20399;-75
2022/05/14 08:53:07;;;;;;;5.57;4.57;;;23.50;48.40;;;;;;5113498;28;20110;-75
2022/05/14 08:55:46;;;;;;;7.38;4.75;;;23.60;48.30;;;;;;5113473;28;20503;-76
2022/05/14 08:58:18;;;;;;;6.70;4.35;;;23.60;47.70;;;;;;5113325;28;20453;-76
2022/05/14 09:00:44;;;;;;;10.27;3.90;;;23.60;47.70;;;;;;5113392;28;20019;-74
2022/05/14 09:03:10;;;;;;;11.60;3.83;;;23.60;47.70;;;;;;5113421;28;20107;-75
2022/05/14 09:05:37;;;;;;;5.32;3.20;;;23.60;45.90;;;;;;5113505;28;20020;-75
2022/05/14 09:08:03;;;;;;;6.50;2.90;;;23.50;44.70;;;;;;5113402;28;20103;-75
2022/05/14 09:10:35;;;;;;;5.38;2.90;;;23.50;45.30;;;;;;5095096;28;20024;-76
2022/05/14 09:13:20;;;;;;;7.47;3.22;;;23.50;45.60;;;;;;5113310;28;20480;-76
2022/05/14 09:16:00;;;;;;;4.82;2.83;;;23.30;45.50;;;;;;5113357;28;20465;-75
2022/05/14 09:18:32;;;;;;;5.75;3.13;;;23.30;45.40;;;;;;5113653;28;20016;-76
2022/05/14 09:21:07;;;;;;;7.00;2.25;;;23.30;45.40;;;;;;5113243;28;20020;-76
2022/05/14 09:23:43;;;;;;;4.57;2.00;;;23.20;44.00;;;;;;5113181;28;20023;-75
2022/05/14 09:26:34;;;;;;;3.72;1.85;;;23.20;43.90;;;;;;5113013;28;20016;-75
2022/05/14 09:29:15;;;;;;;6.85;2.40;;;23.20;44.40;;;;;;5103316;28;20027;-75
2022/05/14 09:31:54;;;;;;;5.32;2.25;;;23.30;44.40;;;;;;5113496;28;20074;-75
2022/05/14 09:34:21;;;;;;;3.47;2.50;;;23.30;43.20;;;;;;5113025;28;20028;-74
2022/05/14 09:36:51;;;;;;;7.15;2.38;;;23.30;43.20;;;;;;5094666;28;20370;-75
2022/05/14 09:39:22;;;;;;;5.63;2.35;;;23.30;42.30;;;;;;5113099;28;20027;-74
2022/05/14 09:41:57;;;;;;;9.32;2.20;;;23.30;42.40;;;;;;5113128;28;20073;-74
2022/05/14 09:44:29;;;;;;;5.63;2.15;;;23.30;42.50;;;;;;5113025;28;20466;-75
2022/05/14 09:47:09;;;;;;;7.82;2.13;;;23.40;42.70;;;;;;5095255;28;20027;-74
2022/05/14 09:49:39;;;;;;;5.22;2.35;;;23.50;42.00;;;;;;5116904;28;20042;-75
2022/05/14 09:52:09;;;;;;;6.05;2.17;;;23.50;41.80;;;;;;5116935;28;20469;-75
2022/05/14 09:54:43;;;;;;;5.13;2.00;;;23.50;39.90;;;;;;5116912;28;20080;-76
2022/05/14 09:57:17;;;;;;;3.92;1.70;;;23.60;39.60;;;;;;5116898;28;20016;-76
2022/05/14 09:59:43;;;;;;;3.50;1.85;;;23.60;40.10;;;;;;5116532;28;20036;-76
2022/05/14 10:02:15;;;;;;;5.22;1.60;;;23.70;39.90;;;;;;5116677;28;20031;-75
2022/05/14 10:05:11;;;;;;;5.55;1.60;;;23.70;38.80;;;;;;5116836;28;20020;-75
2022/05/14 10:08:04;;;;;;;4.93;2.00;;;23.70;39.50;;;;;;5116549;28;20437;-75
2022/05/14 10:10:55;;;;;;;4.15;1.50;;;23.90;39.80;;;;;;5098671;28;20385;-75
2022/05/14 10:13:32;;;;;;;6.72;1.50;;;23.90;38.20;;;;;;5116580;28;20427;-75
2022/05/14 10:16:30;;;;;;;3.50;1.80;;;24.00;38.20;;;;;;5116674;28;20381;-75
2022/05/14 10:19:23;;;;;;;5.32;1.52;;;24.10;38.20;;;;;;5116516;28;20016;-75
2022/05/14 10:22:08;;;;;;;5.07;1.65;;;24.20;36.90;;;;;;5116267;28;20541;-75
2022/05/14 10:28:16;;;;;;;4.07;1.58;;;24.30;36.40;;;;;;5116225;28;20541;-76
2022/05/14 10:30:54;;;;;;;3.60;1.65;;;24.40;37.70;;;;;;5109476;28;20481;-75
2022/05/14 10:33:25;;;;;;;3.08;1.63;;;24.40;35.00;;;;;;5116153;28;20468;-74
2022/05/14 10:36:04;;;;;;;6.18;1.60;;;24.50;34.60;;;;;;5097809;28;20031;-75
2022/05/14 10:38:50;;;;;;;3.47;1.75;;;24.50;33.50;;;;;;5116171;28;20028;-75
2022/05/14 10:41:40;;;;;;;3.22;1.95;;;24.60;35.00;;;;;;5115910;28;20026;-75
2022/05/14 10:44:17;;;;;;;5.55;1.70;;;24.70;35.50;;;;;;5115925;28;20077;-75
2022/05/14 10:46:46;;;;;;;5.93;1.60;;;24.80;36.90;;;;;;5115801;28;20016;-76
2022/05/14 10:49:37;;;;;;;6.30;1.63;;;24.90;35.60;;;;;;5097516;28;20023;-75
2022/05/14 10:52:08;;;;;;;4.63;2.70;;;24.90;35.60;;;;;;5115765;28;20087;-75
2022/05/14 10:54:34;;;;;;;5.00;1.50;;;24.80;35.20;;;;;;5115832;28;20020;-75
2022/05/14 10:57:07;;;;;;;3.33;1.75;;;24.80;35.50;;;;;;5097391;28;20108;-75
2022/05/14 10:59:38;;;;;;;4.05;1.92;;;24.90;35.20;;;;;;5115013;28;20044;-75
2022/05/14 11:02:12;;;;;;;3.50;1.42;;;24.90;34.70;;;;;;5115561;28;20024;-75
2022/05/14 11:04:40;;;;;;;17.05;2.20;;;24.90;36.10;;;;;;5097592;28;20023;-75
2022/05/14 11:07:33;;;;;;;3.65;1.55;;;25.00;35.30;;;;;;5115522;28;20019;-74
2022/05/14 11:10:35;;;;;;;13.85;2.80;;;25.00;35.90;;;;;;5111970;28;20070;-75
2022/05/14 11:13:24;;;;;;;4.43;2.03;;;25.10;35.60;;;;;;5115418;28;20020;-75
2022/05/14 11:16:03;;;;;;;3.42;2.03;;;25.20;35.90;;;;;;5115436;28;20157;-75
2022/05/14 11:18:29;;;;;;;5.68;2.05;;;25.30;34.90;;;;;;5096906;28;20026;-75
2022/05/14 11:21:03;;;;;;;3.10;1.60;;;25.40;35.10;;;;;;5096871;28;20028;-75
2022/05/14 11:23:29;;;;;;;5.88;2.20;;;25.50;36.00;;;;;;5115070;28;20086;-75
2022/05/14 11:26:16;;;;;;;4.20;2.28;;;25.60;36.10;;;;;;5115045;28;20073;-75
2022/05/14 11:28:44;;;;;;;5.57;2.13;;;25.60;34.70;;;;;;5115288;28;20023;-75
2022/05/14 11:31:32;;;;;;;4.05;2.03;;;25.60;34.50;;;;;;5114899;28;20103;-75
2022/05/14 11:34:01;;;;;;;6.20;2.75;;;25.70;35.50;;;;;;5114757;28;20019;-75
2022/05/14 11:36:34;;;;;;;4.43;2.10;;;25.70;35.50;;;;;;5096637;28;20020;-75
2022/05/14 11:39:18;;;;;;;3.30;1.92;;;25.70;34.10;;;;;;5114949;28;20035;-75
2022/05/14 11:41:44;;;;;;;6.93;1.88;;;25.70;35.00;;;;;;5096426;28;20031;-75
2022/05/14 11:44:10;;;;;;;4.78;1.52;;;25.70;34.60;;;;;;5114677;28;20358;-75
2022/05/14 11:46:48;;;;;;;4.38;1.90;;;25.80;35.00;;;;;;5096463;28;20103;-75
2022/05/14 11:49:22;;;;;;;11.25;2.50;;;25.80;33.90;;;;;;5114569;28;20020;-75
2022/05/14 11:52:13;;;;;;;4.22;1.67;;;25.80;33.60;;;;;;5114580;28;20492;-75
2022/05/14 11:54:47;;;;;;;4.70;2.13;;;25.90;34.20;;;;;;5096162;28;20076;-74
2022/05/14 11:57:16;;;;;;;6.70;2.00;;;26.00;33.40;;;;;;5096252;28;20515;-75
2022/05/14 11:59:59;;;;;;;5.75;2.03;;;26.00;33.40;;;;;;5114057;28;20051;-75
2022/05/14 12:02:37;;;;;;;6.95;1.80;;;26.10;33.30;;;;;;5096087;28;20023;-75
2022/05/14 12:05:07;;;;;;;3.58;1.67;;;26.20;32.10;;;;;;5114304;28;20028;-74
2022/05/14 12:07:45;;;;;;;2.30;1.42;;;26.30;31.90;;;;;;5114721;28;20528;-74
2022/05/14 12:10:30;;;;;;;3.13;1.30;;;26.40;32.80;;;;;;5114179;28;20035;-75
2022/05/14 12:13:09;;;;;;;2.92;1.40;;;26.60;33.00;;;;;;5096039;28;20469;-75
2022/05/14 12:15:36;;;;;;;8.50;1.80;;;26.70;32.70;;;;;;5114136;28;20027;-75
2022/05/14 12:18:02;;;;;;;3.85;1.30;;;26.80;30.10;;;;;;5114051;28;20055;-75
2022/05/14 12:20:30;;;;;;;3.53;1.58;;;26.80;30.00;;;;;;5113928;28;20497;-75
2022/05/14 12:23:11;;;;;;;2.65;1.38;;;26.90;29.80;;;;;;5113865;28;20094;-75
2022/05/14 12:25:46;;;;;;;2.63;1.48;;;26.80;29.20;;;;;;5113898;28;20026;-76
2022/05/14 12:28:19;;;;;;;4.95;1.40;;;26.80;29.80;;;;;;5095528;28;20024;-75
2022/05/14 12:34:05;;;;;;;4.82;1.20;;;26.70;29.50;;;;;;5113853;28;20674;-75
2022/05/14 12:36:45;;;;;;;6.28;1.52;;;26.70;29.60;;;;;;5095513;28;20027;-75
2022/05/14 12:39:23;;;;;;;4.63;1.40;;;26.70;29.90;;;;;;5113741;28;20066;-75
2022/05/14 12:41:53;;;;;;;5.65;1.30;;;26.70;29.50;;;;;;5113619;28;20031;-75
2022/05/14 12:44:29;;;;;;;4.35;1.33;;;26.60;29.30;;;;;;5113671;28;20481;-75
2022/05/14 12:46:58;;;;;;;8.50;2.03;;;26.60;29.20;;;;;;5113674;28;20028;-75
2022/05/14 12:49:30;;;;;;;5.30;1.40;;;26.60;29.40;;;;;;5095422;28;20024;-75
2022/05/14 12:52:07;;;;;;;4.07;1.48;;;26.60;29.70;;;;;;5113580;28;20058;-75
2022/05/14 12:54:35;;;;;;;3.10;1.40;;;26.50;29.10;;;;;;5095218;28;20023;-75
2022/05/14 12:57:08;;;;;;;5.15;1.40;;;26.50;29.60;;;;;;5113482;28;20016;-75
2022/05/14 12:59:36;;;;;;;;;;;26.60;29.80;;;;;;5113575;28;20404;-76
2022/05/14 13:02:23;;;;;;;8.70;1.92;;;26.60;31.40;;;;;;5113510;28;20347;-75
2022/05/14 13:05:10;;;;;;;5.43;1.23;;;26.60;30.20;;;;;;5113393;28;20024;-75
2022/05/14 13:07:54;;;;;;;3.95;1.20;;;26.60;30.50;;;;;;5113467;28;20019;-75
2022/05/14 13:10:24;;;;;;;4.03;1.50;;;26.60;30.00;;;;;;5113332;28;20023;-76
2022/05/14 13:12:58;;;;;;;2.90;1.23;;;26.70;29.60;;;;;;5113248;28;20074;-75
2022/05/14 13:15:39;;;;;;;2.35;1.20;;;26.60;29.40;;;;;;5113346;28;20016;-75
2022/05/14 13:18:21;;;;;;;2.20;1.27;;;26.60;29.90;;;;;;5113281;28;20028;-75
2022/05/14 13:20:55;;;;;;;5.53;1.17;;;26.60;29.80;;;;;;5113348;28;20023;-76
2022/05/14 13:23:21;;;;;;;3.08;1.30;;;26.60;29.70;;;;;;5099161;28;20026;-75